Time;durP1;ratioP1;P1;durP2;ratioP2;P2;SDS_P1;SDS_P2;PMS_P1;PMS_P2;Temp;Humidity;BMP_temperature;BMP_pressure;BME280_temperature;BME280_humidity;BME280_pressure;Samples;Min_cycle;Max_cycle;Signal;HPM_P1;HPM_P2
2023/04/02 00:01:18;;;;;;;;;26.33;22.67;;;;;9.40;93.60;100958.50;5002989;28;45382;-65
2023/04/02 00:03:43;;;;;;;;;32.67;24.67;;;;;9.40;92.90;100952.38;4975171;28;46227;-65
2023/04/02 00:06:31;;;;;;;;;31.33;22.33;;;;;9.37;93.10;100962.94;4975377;28;45493;-65
2023/04/02 00:09:18;;;;;;;;;34.67;23.67;;;;;9.38;93.19;100964.66;4975246;28;45463;-65
2023/04/02 00:11:49;;;;;;;;;21.00;17.67;;;;;9.24;93.09;100949.97;4968506;28;46062;-65
2023/04/02 00:14:21;;;;;;;;;26.67;21.67;;;;;9.39;93.16;100976.91;4974999;28;45450;-65
2023/04/02 00:16:47;;;;;;;;;28.67;23.33;;;;;9.12;92.92;100936.13;4975464;28;45331;-65
2023/04/02 00:19:19;;;;;;;;;20.67;18.33;;;;;9.32;92.85;100976.13;4975381;28;45387;-65
2023/04/02 00:21:46;;;;;;;;;27.00;25.00;;;;;9.30;93.09;100963.91;4973953;28;45390;-65
2023/04/02 00:24:16;;;;;;;;;27.00;21.00;;;;;9.27;93.36;100977.94;4974578;28;46619;-65
2023/04/02 00:26:48;;;;;;;;;25.33;24.33;;;;;9.24;93.09;100973.59;4974373;28;45574;-65
2023/04/02 00:29:15;;;;;;;;;27.67;24.33;;;;;9.24;93.76;100975.38;4975353;28;45464;-65
2023/04/02 00:31:43;;;;;;;;;28.33;25.67;;;;;9.31;93.85;100991.91;4975480;28;45327;-65
2023/04/02 00:34:28;;;;;;;;;31.33;27.67;;;;;9.33;93.53;100990.16;4974939;28;45419;-65
2023/04/02 00:36:54;;;;;;;;;29.33;25.33;;;;;9.28;94.00;100984.06;4987364;28;45304;-65
2023/04/02 00:39:24;;;;;;;;;25.33;21.33;;;;;9.23;93.25;100982.38;5035775;28;45454;-65
2023/04/02 00:41:57;;;;;;;;;22.00;16.67;;;;;9.31;93.66;100999.78;5089766;27;45364;-65
2023/04/02 00:44:28;;;;;;;;;24.00;21.33;;;;;9.23;93.82;100986.75;5097020;27;46207;-65
2023/04/02 00:46:54;;;;;;;;;32.00;24.33;;;;;9.27;93.98;100993.72;5097295;27;45453;-65
2023/04/02 00:49:28;;;;;;;;;29.00;22.00;;;;;9.22;94.32;100995.53;5097381;27;45379;-65
2023/04/02 00:51:58;;;;;;;;;23.33;18.00;;;;;9.03;94.10;100956.38;5096287;27;45396;-65
2023/04/02 00:54:28;;;;;;;;;26.33;23.00;;;;;9.27;94.38;101009.47;5097034;27;45345;-65
2023/04/02 00:56:57;;;;;;;;;24.33;22.00;;;;;9.28;94.10;101011.22;5097421;27;45340;-65
2023/04/02 00:59:47;;;;;;;;;21.67;18.67;;;;;9.27;93.77;101019.13;5097066;27;45358;-65
2023/04/02 01:02:13;;;;;;;;;22.33;19.67;;;;;9.30;94.09;101013.84;5093697;27;45649;-65
2023/04/02 01:04:39;;;;;;;;;28.67;23.00;;;;;9.31;94.16;101021.69;5096754;27;47185;-66
2023/04/02 01:07:09;;;;;;;;;27.67;26.67;;;;;9.23;94.16;101011.25;5097752;27;45464;-65
2023/04/02 01:10:02;;;;;;;;;35.00;28.00;;;;;9.26;94.07;101020.03;5100446;27;45319;-65
2023/04/02 01:12:41;;;;;;;;;33.00;28.33;;;;;9.32;93.79;101039.19;5100544;27;45455;-65
2023/04/02 01:15:26;;;;;;;;;23.67;19.00;;;;;9.20;93.74;101027.06;5100149;27;46230;-65
2023/04/02 01:18:02;;;;;;;;;23.33;18.67;;;;;9.31;94.47;101041.81;5100481;27;45335;-65
2023/04/02 01:20:33;;;;;;;;;16.67;14.33;;;;;9.33;93.91;101050.59;5100307;27;45497;-65
2023/04/02 01:23:17;;;;;;;;;17.00;13.00;;;;;9.34;93.60;101045.31;5100683;27;45299;-65
2023/04/02 01:25:55;;;;;;;;;32.67;25.67;;;;;9.26;93.62;101036.63;5100089;27;45412;-65
2023/04/02 01:28:35;;;;;;;;;25.00;18.67;;;;;9.36;93.48;101053.16;5100117;27;45208;-65
2023/04/02 01:31:02;;;;;;;;;21.67;16.33;;;;;9.34;93.18;101047.06;5100261;27;45365;-66
2023/04/02 01:33:32;;;;;;;;;22.33;17.33;;;;;9.30;93.69;101053.25;5098622;27;45290;-65
2023/04/02 01:36:25;;;;;;;;;19.33;18.33;;;;;9.33;93.26;101055.84;5097862;27;46346;-65
2023/04/02 01:39:03;;;;;;;;;19.33;14.00;;;;;9.29;93.39;101047.09;5090274;27;45473;-65
2023/04/02 01:41:35;;;;;;;;;14.67;14.67;;;;;9.30;nan;101061.13;5119913;27;45222;-65
2023/04/02 01:44:08;;;;;;;;;21.33;17.33;;;;;9.26;93.53;101049.78;5120938;27;45357;-65
2023/04/02 01:46:39;;;;;;;;;19.33;17.00;;;;;9.34;93.32;101065.47;5120505;27;46570;-65
2023/04/02 01:49:13;;;;;;;;;19.33;16.33;;;;;9.35;93.43;101061.94;5120639;27;45419;-65
2023/04/02 01:51:43;;;;;;;;;20.33;18.00;;;;;9.38;93.21;101075.03;5120604;27;45238;-65
2023/04/02 01:54:09;;;;;;;;;22.67;18.00;;;;;9.34;92.93;101071.59;5120566;27;45364;-65
2023/04/02 01:56:35;;;;;;;;;20.00;16.67;;;;;9.34;93.43;101071.59;5120448;27;46190;-65
2023/04/02 01:59:04;;;;;;;;;18.67;15.33;;;;;9.32;93.07;101075.97;5120258;27;45682;-65
2023/04/02 02:01:53;;;;;;;;;19.67;17.00;;;;;9.20;93.09;101057.75;5120539;27;45424;-65
2023/04/02 02:04:19;;;;;;;;;24.00;17.67;;;;;9.24;93.25;101070.81;5112993;27;45668;-65
2023/04/02 02:06:46;;;;;;;;;20.33;17.00;;;;;9.25;93.28;101071.72;5119941;27;46062;-65
2023/04/02 02:09:20;;;;;;;;;22.33;18.33;;;;;9.23;93.27;101076.09;5119816;27;45467;-65
2023/04/02 02:11:47;;;;;;;;;16.00;16.00;;;;;9.21;93.55;101077.88;5119802;27;45385;-65
2023/04/02 02:14:19;;;;;;;;;27.00;19.00;;;;;9.25;94.00;101084.84;5120257;27;45370;-65
2023/04/02 02:16:46;;;;;;;;;21.33;14.67;;;;;9.30;93.02;101093.53;5120096;27;45472;-65
2023/04/02 02:19:27;;;;;;;;;18.67;16.00;;;;;9.30;93.15;101104.03;5119649;27;45233;-65
2023/04/02 02:21:55;;;;;;;;;21.00;17.00;;;;;9.28;92.73;101113.72;5120234;27;45374;-65
2023/04/02 02:24:29;;;;;;;;;15.67;14.33;;;;;9.26;93.12;101117.22;5120091;27;45216;-65
2023/04/02 02:27:13;;;;;;;;;18.33;17.67;;;;;9.29;93.17;101117.19;5119617;27;45566;-65
2023/04/02 02:29:41;;;;;;;;;14.33;13.67;;;;;9.30;92.88;101122.44;5119854;27;45401;-65
2023/04/02 02:32:09;;;;;;;;;23.67;18.67;;;;;9.30;93.32;101113.69;5120111;27;45337;-65
2023/04/02 02:34:42;;;;;;;;;15.33;14.67;;;;;9.29;92.82;101128.56;5119766;27;45386;-65
2023/04/02 02:37:27;;;;;;;;;22.00;18.00;;;;;9.30;92.87;101132.94;5119656;27;46194;-65
2023/04/02 02:39:55;;;;;;;;;18.00;16.00;;;;;9.28;92.46;101128.59;5119603;27;45342;-65
2023/04/02 02:42:34;;;;;;;;;22.33;20.67;;;;;9.30;92.73;101138.19;5119755;27;45378;-65
2023/04/02 02:45:04;;;;;;;;;24.67;17.00;;;;;9.32;92.57;101139.03;5119551;27;45282;-65
2023/04/02 02:47:34;;;;;;;;;20.00;16.00;;;;;9.33;92.27;101151.28;5119600;27;45529;-65
2023/04/02 02:50:04;;;;;;;;;20.00;17.00;;;;;9.28;92.13;101152.22;5119610;27;45313;-65
2023/04/02 02:52:33;;;;;;;;;18.00;16.00;;;;;9.22;91.82;101142.66;5119593;27;45211;-65
2023/04/02 02:55:13;;;;;;;;;17.67;14.67;;;;;9.26;91.96;101157.50;5119670;27;45452;-65
2023/04/02 02:57:45;;;;;;;;;20.67;14.00;;;;;9.25;91.99;101161.03;5119294;27;45329;-65
2023/04/02 03:00:12;;;;;;;;;21.00;19.67;;;;;9.20;91.84;101163.69;5119570;27;45177;-65
2023/04/02 03:02:40;;;;;;;;;22.67;16.67;;;;;9.22;91.73;101168.94;5119314;27;45417;-65
2023/04/02 03:05:07;;;;;;;;;21.00;15.67;;;;;9.29;91.49;101183.75;5119215;27;45686;-65
2023/04/02 03:07:33;;;;;;;;;24.33;17.67;;;;;9.16;91.31;101158.50;5119277;27;47412;-65
2023/04/02 03:10:36;;;;;;;;;20.67;14.00;;;;;9.19;91.40;101172.50;5119290;27;45422;-65
2023/04/02 03:13:31;;;;;;;;;25.00;17.00;;;;;9.29;91.43;101189.00;5118479;27;45418;-65
2023/04/02 03:16:11;;;;;;;;;17.33;17.00;;;;;9.30;90.99;101192.53;5119181;27;45611;-65
2023/04/02 03:19:01;;;;;;;;;19.67;18.00;;;;;9.27;91.02;101203.94;5118959;27;45522;-65
2023/04/02 03:21:34;;;;;;;;;17.00;16.00;;;;;9.28;90.77;101203.06;5119004;27;45429;-65
2023/04/02 03:24:04;;;;;;;;;15.67;13.00;;;;;9.30;90.36;101208.28;5119168;27;45331;-65
2023/04/02 03:26:42;;;;;;;;;20.00;15.00;;;;;9.30;91.20;101205.66;5118922;27;45249;-65
2023/04/02 03:29:37;;;;;;;;;16.00;16.00;;;;;9.24;90.79;101203.97;5118257;27;45438;-65
2023/04/02 03:32:11;;;;;;;;;20.00;20.00;;;;;9.24;90.75;101206.59;5117250;27;45284;-65
2023/04/02 03:34:42;;;;;;;;;22.00;15.00;;;;;9.31;90.62;101220.53;5119249;27;45278;-65
2023/04/02 03:37:15;;;;;;;;;15.67;14.00;;;;;9.29;90.47;101224.94;5119108;27;45342;-65
2023/04/02 03:40:09;;;;;;;;;14.33;14.33;;;;;9.29;90.41;101223.16;5134314;27;47602;-65
2023/04/02 03:42:45;;;;;;;;;18.67;16.00;;;;;9.27;89.93;101230.19;5113899;27;45560;-65
2023/04/02 03:45:24;;;;;;;;;29.33;19.33;;;;;9.27;90.06;101240.72;5119028;27;45333;-65
2023/04/02 03:47:58;;;;;;;;;16.00;14.67;;;;;9.23;89.93;101244.25;5119104;27;45433;-65
2023/04/02 03:50:33;;;;;;;;;20.67;17.33;;;;;9.22;89.85;101243.38;5118623;27;45427;-65
2023/04/02 03:53:01;;;;;;;;;21.33;17.33;;;;;9.24;89.97;101249.50;5117293;27;45383;-65
2023/04/02 03:55:34;;;;;;;;;26.00;21.00;;;;;9.20;89.83;101247.78;5118268;27;45224;-65
2023/04/02 03:58:32;;;;;;;;;16.33;16.33;;;;;9.20;89.34;101253.03;5118795;27;45355;-65
2023/04/02 04:01:27;;;;;;;;;22.33;20.00;;;;;9.18;89.81;101253.94;5118175;27;46273;-65
2023/04/02 04:03:56;;;;;;;;;24.67;19.33;;;;;9.07;89.68;101243.50;5118671;27;45301;-65
2023/04/02 04:06:33;;;;;;;;;20.00;18.67;;;;;8.93;89.33;101232.25;5118669;27;45340;-65
2023/04/02 04:09:07;;;;;;;;;23.67;19.00;;;;;9.15;89.24;101273.22;5118353;27;45468;-65
2023/04/02 04:11:47;;;;;;;;;24.00;19.33;;;;;9.09;89.11;101269.75;5118205;27;45683;-65
2023/04/02 04:14:19;;;;;;;;;26.67;19.00;;;;;9.11;89.25;101279.38;5118089;27;45220;-65
2023/04/02 04:17:12;;;;;;;;;23.00;20.67;;;;;9.11;89.57;101289.03;5118528;27;45425;-65
2023/04/02 04:20:13;;;;;;;;;23.00;18.00;;;;;8.88;89.17;101248.06;5118749;27;45322;-65
2023/04/02 04:22:39;;;;;;;;;21.00;19.33;;;;;9.08;89.34;101287.28;5117930;27;45463;-65
2023/04/02 04:25:28;;;;;;;;;23.33;20.33;;;;;9.10;89.51;101295.16;5118123;27;45337;-65
2023/04/02 04:28:06;;;;;;;;;23.67;19.67;;;;;9.07;89.41;101290.81;5118432;27;45483;-65
2023/04/02 04:30:42;;;;;;;;;19.33;15.33;;;;;9.06;89.74;101294.28;5118465;27;45493;-65
2023/04/02 04:33:21;;;;;;;;;21.67;18.00;;;;;9.10;89.63;101303.91;5117954;27;45349;-65
2023/04/02 04:35:58;;;;;;;;;24.33;18.33;;;;;8.98;89.20;101288.25;5118116;27;45419;-65
2023/04/02 04:38:33;;;;;;;;;24.00;21.00;;;;;9.06;89.72;101305.69;5118007;27;45240;-65
2023/04/02 04:41:10;;;;;;;;;19.00;17.00;;;;;9.08;89.44;101308.31;5118915;27;45333;-65
2023/04/02 04:43:53;;;;;;;;;26.33;22.00;;;;;9.10;89.88;101324.91;5121497;27;46182;-65
2023/04/02 04:46:30;;;;;;;;;21.00;15.67;;;;;9.12;89.38;101330.16;5121572;27;45424;-65
2023/04/02 04:49:03;;;;;;;;;22.33;17.67;;;;;9.11;89.02;101336.31;5121857;27;45385;-65
2023/04/02 04:51:35;;;;;;;;;16.00;15.00;;;;;9.07;89.59;101338.94;5121616;27;45512;-65
2023/04/02 04:54:01;;;;;;;;;19.67;16.00;;;;;9.07;89.18;101344.19;5121499;27;45327;-65
2023/04/02 04:56:29;;;;;;;;;28.67;18.33;;;;;9.10;89.06;101350.34;5120871;27;45390;-65
2023/04/02 04:58:59;;;;;;;;;20.67;18.00;;;;;9.03;88.91;101336.34;5121493;27;45227;-65
2023/04/02 05:01:36;;;;;;;;;21.67;16.00;;;;;8.85;88.92;101317.22;5121114;27;45537;-65
2023/04/02 05:04:13;;;;;;;;;16.33;16.33;;;;;9.07;88.81;101364.34;5120914;27;47104;-65
2023/04/02 05:06:48;;;;;;;;;24.67;18.33;;;;;9.03;88.81;101363.50;5120577;27;45309;-65
2023/04/02 05:09:27;;;;;;;;;20.67;16.67;;;;;9.05;88.67;101371.38;5121225;27;45304;-65
2023/04/02 05:12:00;;;;;;;;;18.00;15.00;;;;;8.99;88.45;101364.41;5120454;27;45593;-65
2023/04/02 05:14:34;;;;;;;;;21.33;17.67;;;;;9.05;88.18;101381.88;5120809;27;46476;-65
2023/04/02 05:17:06;;;;;;;;;19.33;18.33;;;;;9.02;88.39;101374.91;5120997;27;45575;-65
2023/04/02 05:19:50;;;;;;;;;24.00;21.33;;;;;9.03;88.24;101381.91;5120429;27;45319;-65
2023/04/02 05:22:44;;;;;;;;;28.67;20.67;;;;;8.88;88.24;101369.72;5120853;27;45315;-65
2023/04/02 05:25:17;;;;;;;;;20.00;16.33;;;;;9.03;88.30;101394.16;5120985;27;46277;-65
2023/04/02 05:27:45;;;;;;;;;17.67;17.67;;;;;8.85;87.80;101363.63;5119656;27;45472;-65
2023/04/02 05:30:34;;;;;;;;;18.33;16.33;;;;;8.98;87.87;101404.69;5120635;27;45334;-65
2023/04/02 05:33:06;;;;;;;;;21.00;16.00;;;;;8.94;87.26;101415.22;5121065;27;45408;-65
2023/04/02 05:35:36;;;;;;;;;21.00;18.00;;;;;8.90;87.86;101416.97;5119994;27;46486;-65
2023/04/02 05:38:02;;;;;;;;;16.67;13.00;;;;;8.85;87.30;101424.00;5120683;27;45286;-65
2023/04/02 05:40:50;;;;;;;;;14.33;13.33;;;;;8.80;87.30;101423.16;5120590;27;45217;-65
2023/04/02 05:43:21;;;;;;;;;19.00;16.00;;;;;8.85;87.73;101432.75;5120972;27;45505;-65
2023/04/02 05:45:53;;;;;;;;;15.33;15.00;;;;;8.80;87.59;101421.41;5120027;27;45574;-65
2023/04/02 05:48:31;;;;;;;;;21.00;17.67;;;;;8.82;87.26;101430.16;5120000;27;46400;-65
2023/04/02 05:50:58;;;;;;;;;21.33;18.67;;;;;8.81;87.29;101435.41;5120709;27;45226;-65
2023/04/02 05:54:01;;;;;;;;;27.00;25.67;;;;;8.74;87.79;101447.66;5119739;27;45368;-65
2023/04/02 05:56:36;;;;;;;;;22.67;21.67;;;;;8.65;87.60;101432.84;5112779;27;46849;-65
2023/04/02 05:59:18;;;;;;;;;15.00;14.67;;;;;8.76;88.26;101456.44;5119739;27;45493;-65
2023/04/02 06:02:03;;;;;;;;;28.00;22.67;;;;;8.71;87.81;101453.84;5102698;27;45537;-65
2023/04/02 06:04:40;;;;;;;;;20.00;20.00;;;;;8.77;87.78;101462.56;5118200;27;45438;-65
2023/04/02 06:07:19;;;;;;;;;29.33;21.00;;;;;8.78;87.74;101459.91;5120052;27;45691;-65
2023/04/02 06:09:50;;;;;;;;;32.33;23.00;;;;;8.80;87.38;101470.41;5119440;27;45478;-65
2023/04/02 06:12:26;;;;;;;;;25.33;23.00;;;;;8.77;87.36;101471.31;5120435;27;45153;-65
2023/04/02 06:14:52;;;;;;;;;27.00;21.33;;;;;8.80;87.10;101476.56;5120124;27;45387;-65
2023/04/02 06:17:19;;;;;;;;;28.67;21.33;;;;;8.80;87.05;101480.91;5120083;27;46361;-65
2023/04/02 06:19:46;;;;;;;;;26.00;22.33;;;;;8.70;87.20;101472.22;5120080;27;45164;-65
2023/04/02 06:22:21;;;;;;;;;27.33;22.00;;;;;8.82;87.67;101480.03;5120209;27;45439;-65
2023/04/02 06:24:54;;;;;;;;;22.67;20.67;;;;;8.83;86.74;101492.28;5120351;27;45434;-65
2023/04/02 06:27:24;;;;;;;;;20.67;16.33;;;;;8.79;86.92;101497.56;5119764;27;46651;-65
2023/04/02 06:29:54;;;;;;;;;26.00;22.00;;;;;8.81;86.96;101507.16;5119787;27;45393;-65
2023/04/02 06:32:25;;;;;;;;;22.67;21.33;;;;;8.82;86.36;101501.03;5136103;27;45302;-65
2023/04/02 06:34:51;;;;;;;;;25.00;22.00;;;;;8.83;86.75;101522.91;5120123;27;45269;-65
2023/04/02 06:37:37;;;;;;;;;28.00;22.33;;;;;8.71;87.08;101498.47;5119657;27;45434;-65
2023/04/02 06:40:05;;;;;;;;;25.00;18.33;;;;;8.83;86.37;101533.41;5119508;27;45178;-65
2023/04/02 06:42:37;;;;;;;;;27.00;24.33;;;;;8.82;86.52;101534.31;5119847;27;45370;-65
2023/04/02 06:45:03;;;;;;;;;27.33;22.33;;;;;8.80;86.63;101536.06;5119873;27;45484;-65
2023/04/02 06:47:38;;;;;;;;;31.33;26.33;;;;;8.82;86.43;101529.94;5119540;27;45701;-65
2023/04/02 06:50:53;;;;;;;;;29.33;24.00;;;;;8.88;86.50;101544.81;5119645;27;45383;-65
2023/04/02 06:53:24;;;;;;;;;32.33;27.33;;;;;8.82;86.10;101535.19;5096693;27;45276;-65
2023/04/02 06:55:55;;;;;;;;;23.00;19.00;;;;;8.88;86.28;101539.53;5096865;27;45521;-65
2023/04/02 06:58:21;;;;;;;;;29.33;23.33;;;;;8.67;85.72;101516.84;5096700;27;45525;-65
2023/04/02 07:00:48;;;;;;;;;21.67;21.00;;;;;8.87;86.13;101564.06;5096643;27;45446;-65
2023/04/02 07:03:27;;;;;;;;;22.00;20.67;;;;;8.87;86.05;101567.56;5096668;27;45510;-65
2023/04/02 07:05:53;;;;;;;;;26.00;25.00;;;;;8.88;84.71;101568.44;5096951;27;45427;-65
2023/04/02 07:08:19;;;;;;;;;28.33;22.00;;;;;8.76;85.53;101557.94;5096472;27;45408;-65
2023/04/02 07:10:45;;;;;;;;;15.00;14.33;;;;;8.86;85.36;101581.56;5096453;27;45312;-65
2023/04/02 07:13:15;;;;;;;;;25.33;20.33;;;;;8.86;85.46;101585.97;5096476;27;45361;-66
2023/04/02 07:15:42;;;;;;;;;25.67;22.33;;;;;8.87;85.51;101585.06;5096630;27;45292;-66
2023/04/02 07:18:36;;;;;;;;;26.33;25.00;;;;;8.83;84.75;101591.19;5096367;27;45526;-66
2023/04/02 07:21:02;;;;;;;;;26.67;24.33;;;;;8.83;85.08;101594.72;5095900;27;45277;-66
2023/04/02 07:23:27;;;;;;;;;25.33;21.67;;;;;8.78;85.33;101598.22;5096636;27;45434;-66
2023/04/02 07:25:53;;;;;;;;;34.33;25.33;;;;;8.86;85.97;101612.22;5096574;27;45282;-66
2023/04/02 07:28:19;;;;;;;;;33.00;25.33;;;;;8.87;85.22;101612.22;5104777;27;45637;-66
2023/04/02 07:30:45;;;;;;;;;30.33;26.67;;;;;8.85;84.74;101610.47;5118854;27;45228;-66
2023/04/02 07:33:16;;;;;;;;;27.00;24.67;;;;;8.89;84.99;101617.47;5118893;27;45335;-66
2023/04/02 07:35:42;;;;;;;;;28.00;24.33;;;;;8.82;84.95;101616.59;5119151;27;45528;-66
2023/04/02 07:38:08;;;;;;;;;31.33;24.33;;;;;8.85;85.33;101631.47;5118556;27;47360;-66
2023/04/02 07:40:33;;;;;;;;;31.67;24.33;;;;;8.83;85.33;101631.47;5118627;27;45224;-66
2023/04/02 07:42:59;;;;;;;;;25.33;23.33;;;;;8.84;84.84;101633.25;5119008;27;45278;-66
2023/04/02 07:45:26;;;;;;;;;36.00;30.00;;;;;8.82;85.00;101628.84;5118788;27;45400;-66
2023/04/02 07:47:52;;;;;;;;;27.00;22.67;;;;;8.91;84.84;101648.97;5118554;27;46428;-66
2023/04/02 07:50:18;;;;;;;;;32.33;23.67;;;;;8.88;84.87;101648.09;5118691;27;45438;-66
2023/04/02 07:52:43;;;;;;;;;30.67;24.00;;;;;8.89;85.00;101644.59;5118882;27;45850;-66
2023/04/02 07:55:11;;;;;;;;;27.33;24.00;;;;;8.91;84.80;101647.22;5119073;27;45306;-66
2023/04/02 07:57:52;;;;;;;;;27.33;23.67;;;;;8.87;84.72;101645.47;5118507;27;46295;-66
2023/04/02 08:00:19;;;;;;;;;29.00;24.67;;;;;8.99;84.20;101666.47;5118505;27;45370;-66
2023/04/02 08:02:45;;;;;;;;;33.67;28.33;;;;;8.99;84.31;101670.84;5118723;27;45302;-66
2023/04/02 08:05:11;;;;;;;;;25.33;23.67;;;;;8.97;84.43;101657.72;5118787;27;45209;-66
2023/04/02 08:07:38;;;;;;;;;28.00;24.33;;;;;8.98;84.46;101666.47;5115484;27;46027;-66
2023/04/02 08:10:04;;;;;;;;;27.00;24.33;;;;;8.89;84.00;101647.22;5102858;27;45320;-66
2023/04/02 08:12:29;;;;;;;;;28.67;24.67;;;;;9.00;83.41;101665.63;5098622;27;45281;-66
2023/04/02 08:14:54;;;;;;;;;33.67;28.67;;;;;8.96;83.31;101663.84;5118319;27;45708;-66
2023/04/02 08:17:20;;;;;;;;;35.33;28.00;;;;;8.99;83.56;101668.22;5119740;27;46266;-66
2023/04/02 08:19:46;;;;;;;;;35.67;28.00;;;;;8.97;82.86;101665.59;5121591;27;45271;-66
2023/04/02 08:22:11;;;;;;;;;28.00;23.67;;;;;9.04;83.35;101677.84;5121677;27;45463;-66
2023/04/02 08:24:37;;;;;;;;;36.67;30.00;;;;;9.12;83.54;101682.22;5122180;27;45317;-66
2023/04/02 08:27:03;;;;;;;;;26.00;26.00;;;;;9.18;82.72;101685.72;5121781;27;47261;-66
2023/04/02 08:29:31;;;;;;;;;33.67;31.00;;;;;9.17;82.12;101681.31;5121650;27;45426;-66
2023/04/02 08:31:58;;;;;;;;;35.33;32.33;;;;;9.09;82.54;101672.59;5121621;27;45243;-66
2023/04/02 08:34:23;;;;;;;;;34.33;29.33;;;;;9.21;83.07;101683.06;5122059;27;45220;-66
2023/04/02 08:36:48;;;;;;;;;28.67;22.00;;;;;9.13;82.95;101676.09;5121605;27;45386;-66
2023/04/02 08:39:14;;;;;;;;;32.33;29.67;;;;;9.25;82.73;101697.09;5121600;27;45507;-66
2023/04/02 08:41:57;;;;;;;;;37.00;31.00;;;;;9.23;82.45;101706.72;5121525;27;45321;-66
2023/04/02 08:44:41;;;;;;;;;34.33;30.67;;;;;9.26;82.46;101717.22;5121838;27;45480;-66
2023/04/02 08:47:08;;;;;;;;;37.00;30.33;;;;;9.26;82.21;101727.72;5121296;27;46524;-66
2023/04/02 08:49:58;;;;;;;;;30.67;27.67;;;;;9.20;82.41;101722.50;5121413;27;45336;-66
2023/04/02 08:52:29;;;;;;;;;35.00;33.00;;;;;9.30;82.60;101729.47;5121615;27;45473;-66
2023/04/02 08:54:56;;;;;;;;;33.00;28.33;;;;;9.29;81.93;101727.72;5121781;27;45405;-66
2023/04/02 08:57:45;;;;;;;;;32.67;30.00;;;;;9.34;82.39;101735.63;5121001;27;46425;-66
2023/04/02 09:00:35;;;;;;;;;35.33;30.67;;;;;9.31;82.22;101741.75;5121235;27;46045;-66
2023/04/02 09:03:09;;;;;;;;;38.33;30.67;;;;;9.24;81.13;101732.13;5120053;27;45569;-65
2023/04/02 09:05:40;;;;;;;;;41.00;31.67;;;;;9.29;81.67;101748.75;5121199;27;45409;-66
2023/04/02 09:08:26;;;;;;;;;40.00;32.67;;;;;9.30;81.85;101758.41;5121067;27;45398;-66
2023/04/02 09:11:17;;;;;;;;;29.00;29.00;;;;;9.26;82.09;101761.03;5121211;27;45332;-66
2023/04/02 09:13:46;;;;;;;;;34.00;28.33;;;;;9.27;81.78;101774.16;5120878;27;45420;-66
2023/04/02 09:16:15;;;;;;;;;33.00;26.33;;;;;9.30;81.85;101770.66;5121186;27;45422;-66
2023/04/02 09:18:46;;;;;;;;;32.67;26.00;;;;;9.23;81.47;101770.66;5120728;27;45453;-66
2023/04/02 09:21:20;;;;;;;;;24.67;24.67;;;;;9.28;81.96;101789.06;5120848;27;45262;-66
2023/04/02 09:23:46;;;;;;;;;26.33;22.33;;;;;9.26;80.95;101798.69;5120919;27;45340;-65
2023/04/02 09:26:29;;;;;;;;;30.00;24.67;;;;;9.17;81.15;101804.81;5120903;27;45433;-66
2023/04/02 09:29:36;;;;;;;;;29.67;27.00;;;;;9.17;81.10;101802.19;5119450;27;46288;-66
2023/04/02 09:32:36;;;;;;;;;31.33;24.67;;;;;9.21;81.08;101805.72;5076731;28;45439;-66
2023/04/02 09:35:14;;;;;;;;;33.00;27.33;;;;;9.21;80.91;101806.56;5077529;28;45408;-66
2023/04/02 09:37:42;;;;;;;;;38.67;29.33;;;;;9.13;79.95;101794.31;5077611;28;45477;-67
2023/04/02 09:40:16;;;;;;;;;35.33;32.33;;;;;9.19;80.46;101820.59;5076765;28;46172;-66
2023/04/02 09:42:42;;;;;;;;;32.00;28.67;;;;;9.13;79.89;101804.81;5077514;28;45281;-66
2023/04/02 09:45:33;;;;;;;;;33.33;29.33;;;;;9.13;80.42;101828.47;5077018;28;45519;-66
2023/04/02 09:47:59;;;;;;;;;31.67;29.33;;;;;9.07;80.39;101809.19;5073654;28;45452;-66
2023/04/02 09:50:28;;;;;;;;;33.67;29.33;;;;;9.12;80.21;101829.34;5077106;28;46516;-66
2023/04/02 09:52:54;;;;;;;;;35.67;31.33;;;;;9.05;80.26;101823.22;5077132;28;46031;-66
2023/04/02 09:55:25;;;;;;;;;29.00;26.00;;;;;9.04;80.72;101835.47;5076971;28;45220;-66
2023/04/02 09:58:11;;;;;;;;;41.67;33.00;;;;;9.02;81.10;101834.59;5077206;28;45480;-66
2023/04/02 10:00:37;;;;;;;;;29.33;26.67;;;;;9.04;81.05;101835.47;5076887;28;46213;-66
2023/04/02 10:03:22;;;;;;;;;33.00;30.00;;;;;9.16;80.68;101852.97;5076767;28;45399;-65
2023/04/02 10:05:48;;;;;;;;;35.33;34.00;;;;;9.19;80.39;101858.28;5077158;28;45384;-65
2023/04/02 10:08:25;;;;;;;;;33.00;28.67;;;;;9.17;80.09;101867.88;5088875;27;45610;-65
2023/04/02 10:10:54;;;;;;;;;40.00;33.67;;;;;9.14;80.06;101862.63;5120313;27;45397;-65
2023/04/02 10:13:25;;;;;;;;;40.00;33.00;;;;;9.26;80.43;101864.38;5120080;27;45487;-66
2023/04/02 10:15:59;;;;;;;;;37.33;31.67;;;;;9.34;79.70;101872.31;5119941;27;45558;-66
2023/04/02 10:18:38;;;;;;;;;29.00;24.00;;;;;9.33;79.80;101866.16;5120125;27;45354;-66
2023/04/02 10:21:05;;;;;;;;;23.67;22.67;;;;;9.46;79.70;101874.06;5120013;27;47009;-66
2023/04/02 10:23:31;;;;;;;;;36.67;29.33;;;;;9.44;79.57;101873.16;5119683;27;45469;-65
2023/04/02 10:26:23;;;;;;;;;29.67;26.00;;;;;9.52;77.45;101884.56;5120019;27;45255;-65
2023/04/02 10:28:57;;;;;;;;;26.00;20.67;;;;;9.51;78.26;101898.56;5120249;27;45552;-65
2023/04/02 10:31:39;;;;;;;;;31.33;24.67;;;;;9.47;78.32;101896.81;5119700;27;47268;-65
2023/04/02 10:34:17;;;;;;;;;21.00;17.67;;;;;9.48;77.36;101899.44;5119945;27;45330;-65
2023/04/02 10:36:49;;;;;;;;;23.67;20.33;;;;;9.44;77.67;101892.47;5119944;27;45488;-65
2023/04/02 10:39:21;;;;;;;;;23.67;18.00;;;;;9.54;77.01;101906.44;5119210;27;45558;-66
2023/04/02 10:42:20;;;;;;;;;26.00;19.33;;;;;9.57;77.54;101912.59;5119544;27;46248;-66
2023/04/02 10:45:19;;;;;;;;;22.00;20.00;;;;;9.70;77.33;101916.13;5119374;27;45487;-66
2023/04/02 10:48:11;;;;;;;;;20.67;17.00;;;;;9.68;77.16;101906.47;5111765;27;45586;-65
2023/04/02 10:50:48;;;;;;;;;29.67;26.00;;;;;9.70;75.96;101923.13;5119167;27;45403;-65
2023/04/02 10:53:15;;;;;;;;;34.33;26.67;;;;;9.70;76.72;101928.38;5119157;27;45370;-66
2023/04/02 10:55:50;;;;;;;;;30.67;25.00;;;;;9.67;77.03;101933.63;5119256;27;45353;-66
2023/04/02 10:58:28;;;;;;;;;36.33;30.67;;;;;9.69;77.02;101938.03;5119120;27;45520;-65
2023/04/02 11:01:00;;;;;;;;;29.00;25.67;;;;;9.63;76.06;101927.50;5119337;27;45386;-65
2023/04/02 11:03:35;;;;;;;;;32.00;30.67;;;;;9.64;76.43;101945.03;5119129;27;45527;-65
2023/04/02 11:06:21;;;;;;;;;27.00;24.00;;;;;9.64;76.77;101944.16;5119221;27;45452;-65
2023/04/02 11:08:51;;;;;;;;;26.67;23.33;;;;;9.57;76.13;101938.91;5119169;27;45418;-65
2023/04/02 11:11:23;;;;;;;;;20.67;20.67;;;;;9.39;75.75;101902.94;5135466;27;45459;-65
2023/04/02 11:14:00;;;;;;;;;25.33;23.33;;;;;9.64;75.84;101946.78;5118906;27;45916;-66
2023/04/02 11:16:26;;;;;;;;;25.33;23.67;;;;;9.61;76.04;101941.53;5118670;27;45362;-66
2023/04/02 11:19:16;;;;;;;;;35.67;29.67;;;;;9.68;76.47;101945.91;5119012;27;45684;-65
2023/04/02 11:21:51;;;;;;;;;27.33;24.00;;;;;9.64;75.69;101939.75;5119291;27;45323;-65
2023/04/02 11:24:30;;;;;;;;;40.33;34.00;;;;;9.74;76.07;101954.69;5118927;27;47335;-65
2023/04/02 11:27:10;;;;;;;;;38.67;31.67;;;;;9.78;76.01;101963.44;5117458;27;45478;-65
2023/04/02 11:29:45;;;;;;;;;38.67;31.00;;;;;9.80;74.99;101956.44;5118789;27;45375;-66
2023/04/02 11:32:19;;;;;;;;;37.33;30.33;;;;;9.84;75.53;101965.22;5118906;27;45295;-66
2023/04/02 11:34:47;;;;;;;;;35.00;30.67;;;;;9.87;75.75;101968.69;5118582;27;46387;-66
2023/04/02 11:37:34;;;;;;;;;36.67;28.33;;;;;9.91;75.87;101969.59;5118778;27;45229;-65
2023/04/02 11:40:14;;;;;;;;;34.33;32.67;;;;;9.93;75.32;101978.34;5118229;27;45230;-66
2023/04/02 11:42:40;;;;;;;;;35.67;28.33;;;;;9.93;74.76;101973.09;5119010;27;45387;-66
2023/04/02 11:48:02;;;;;;;;;36.00;30.67;;;;;9.97;74.77;101982.75;5118739;27;45358;-66
2023/04/02 11:50:30;;;;;;;;;39.33;32.00;;;;;10.03;73.84;101997.66;5117672;27;45376;-68
2023/04/02 11:53:02;;;;;;;;;38.00;33.67;;;;;10.06;74.81;102000.28;5118507;27;45406;-69